createdAt,value
2022-09-07T00:00:11.487Z,98721.8
2022-09-07T00:05:46.444Z,98712.2
2022-09-07T00:11:21.158Z,98712
2022-09-07T00:16:55.973Z,98706.9
2022-09-07T00:22:31.899Z,98707.2
2022-09-07T00:28:08.045Z,98705.7
2022-09-07T00:33:42.992Z,98697
2022-09-07T00:39:17.890Z,98689.5
2022-09-07T00:44:52.689Z,98682.3
2022-09-07T00:50:27.470Z,98666
2022-09-07T00:56:02.309Z,98650.3
2022-09-07T01:01:38.111Z,98631.2
2022-09-07T01:07:14.591Z,98626.4
2022-09-07T01:12:49.323Z,98624.6
2022-09-07T01:18:24.301Z,98619.3
2022-09-07T01:23:59.572Z,98612.5
2022-09-07T01:29:34.875Z,98614.1
2022-09-07T01:35:10.820Z,98609.2
2022-09-07T01:41:07.310Z,98599.9
2022-09-07T01:46:40.702Z,98597.1
2022-09-07T01:52:16.782Z,98601.2
2022-09-07T01:57:51.713Z,98590.6
2022-09-07T02:03:26.503Z,98581.4
2022-09-07T02:09:01.319Z,98577.7
2022-09-07T02:14:36.265Z,98578.9
2022-09-07T02:20:11.067Z,98582.7
2022-09-07T02:25:45.782Z,98574.6
2022-09-07T02:31:20.822Z,98565.6
2022-09-07T02:36:56.305Z,98564.5
2022-09-07T02:42:52.889Z,98559.5
2022-09-07T02:48:25.405Z,98564.6
2022-09-07T02:54:01.085Z,98561.8
2022-09-07T02:59:35.744Z,98556.9
2022-09-07T03:05:10.433Z,98549.1
2022-09-07T03:10:45.262Z,98548.2
2022-09-07T03:16:20.650Z,98539.9
2022-09-07T03:21:55.803Z,98544.9
2022-09-07T03:27:31.726Z,98541
2022-09-07T03:33:06.749Z,98539.8
2022-09-07T03:38:41.719Z,98534.6
2022-09-07T03:44:16.736Z,98525.4
2022-09-07T03:49:53.324Z,98524.6
2022-09-07T03:55:28.198Z,98524.9
2022-09-07T04:01:04.694Z,98513.2
2022-09-07T04:06:40.238Z,98512.3
2022-09-07T04:12:15.066Z,98506.6
2022-09-07T04:17:50.024Z,98506.4
2022-09-07T04:23:24.905Z,98499.7
2022-09-07T04:28:59.759Z,98490.2
2022-09-07T04:34:34.676Z,98486.3
2022-09-07T04:40:11.413Z,98486.5
2022-09-07T04:45:47.163Z,98484.7
2022-09-07T04:51:22.473Z,98481.8
2022-09-07T04:56:57.133Z,98474.3
2022-09-07T05:02:33.600Z,98475.3
2022-09-07T05:08:09.348Z,98478
2022-09-07T05:13:44.184Z,98478.4
2022-09-07T05:19:19.026Z,98478.2
2022-09-07T05:24:53.922Z,98465.5
2022-09-07T05:31:28.944Z,98469.1
2022-09-07T05:37:04.104Z,98465.4
2022-09-07T05:42:38.963Z,98461.4
2022-09-07T05:48:13.855Z,98466.8
2022-09-07T05:53:48.869Z,98463.4
2022-09-07T05:59:23.743Z,98456.9
2022-09-07T06:04:58.547Z,98457.4
2022-09-07T06:10:49.060Z,98459.9
2022-09-07T06:16:24.425Z,98462.6
2022-09-07T06:21:59.539Z,98466.7
2022-09-07T06:27:34.518Z,98471
2022-09-07T06:33:09.583Z,98467.1
2022-09-07T06:38:44.493Z,98468.1
2022-09-07T06:44:19.458Z,98453.3
2022-09-07T06:49:54.155Z,98438
2022-09-07T06:55:29.010Z,98444.6
2022-09-07T07:01:04.790Z,98449.6
2022-09-07T07:06:39.947Z,98452.5
2022-09-07T07:18:21.837Z,98459.1
2022-09-07T07:23:57.009Z,98455.2
2022-09-07T07:29:31.861Z,98441.3
2022-09-07T07:35:06.624Z,98432.4
2022-09-07T07:40:42.097Z,98422.7
2022-09-07T07:46:20.450Z,98419.1
2022-09-07T07:59:18.639Z,98424.1
2022-09-07T08:04:53.793Z,98406.5
2022-09-07T08:10:28.905Z,98410.7
2022-09-07T08:16:05.097Z,98404
2022-09-07T08:21:41.118Z,98404.5
2022-09-07T08:27:16.274Z,98412.7
2022-09-07T08:32:51.420Z,98418.4
2022-09-07T08:38:26.258Z,98428.1
2022-09-07T08:44:01.274Z,98416.5
2022-09-07T08:49:37.781Z,98420
2022-09-07T08:55:12.763Z,98429.7
2022-09-07T09:00:49.038Z,98435.4
2022-09-07T09:06:26.097Z,98436.2
2022-09-07T09:12:01.842Z,98433.9
2022-09-07T09:17:36.787Z,98438.1
2022-09-07T09:23:11.647Z,98429.4
2022-09-07T09:28:46.740Z,98434.1
2022-09-07T09:34:34.626Z,98431
2022-09-07T09:40:11.670Z,98417.7
2022-09-07T09:46:18.101Z,98421.8
2022-09-07T09:52:32.755Z,98418.7
2022-09-07T10:05:49.626Z,98414.6
2022-09-07T10:12:07.716Z,98420.3
2022-09-07T10:17:44.155Z,98398.6
2022-09-07T10:23:19.395Z,98384.2
2022-09-07T10:29:11.777Z,98364.7
2022-09-07T10:34:50.159Z,98372.8
2022-09-07T10:40:25.691Z,98375.1
2022-09-07T10:46:01.613Z,98370.4
2022-09-07T10:51:37.369Z,98365
2022-09-07T10:57:12.623Z,98362.3
2022-09-07T11:03:26.545Z,98342.6
2022-09-07T11:09:21.360Z,98338.7
2022-09-07T11:14:56.922Z,98341.9
2022-09-07T11:20:32.052Z,98320.7
2022-09-07T11:26:07.013Z,98313.8
2022-09-07T11:31:42.370Z,98303.1
2022-09-07T11:37:17.262Z,98308.1
2022-09-07T11:42:52.472Z,98294.6
2022-09-07T11:48:32.775Z,98284.9
2022-09-07T11:54:17.937Z,98288.7
2022-09-07T11:59:59.345Z,98277.8
2022-09-07T12:05:45.871Z,98268.1
2022-09-07T12:11:29.808Z,98274.3
2022-09-07T12:17:16.749Z,98280.7
2022-09-07T12:22:51.706Z,98270.2
2022-09-07T12:28:26.637Z,98268.1
2022-09-07T12:34:01.914Z,98267
2022-09-07T12:39:37.138Z,98268.6
2022-09-07T12:45:12.720Z,98268.2
2022-09-07T12:50:48.410Z,98267.4
2022-09-07T12:56:23.377Z,98259.5
2022-09-07T13:01:59.391Z,98267.8
2022-09-07T13:07:36.762Z,98253.3
2022-09-07T13:13:12.020Z,98252.5
2022-09-07T13:18:48.036Z,98252.1
2022-09-07T13:24:53.277Z,98256.6
2022-09-07T13:30:28.589Z,98252.2
2022-09-07T13:36:05.298Z,98258
2022-09-07T13:41:40.288Z,98249.7
2022-09-07T13:47:15.079Z,98233.1
2022-09-07T13:52:50.220Z,98245.5
2022-09-07T13:58:25.163Z,98252.7
2022-09-07T14:04:00.252Z,98254.9
2022-09-07T14:09:35.169Z,98252
2022-09-07T14:15:09.932Z,98261.4
2022-09-07T14:20:45.388Z,98258.7
2022-09-07T14:26:20.702Z,98270
2022-09-07T14:31:56.045Z,98268.2
2022-09-07T14:37:30.814Z,98258.6
2022-09-07T14:43:05.886Z,98258.5
2022-09-07T14:48:44.947Z,98263.3
2022-09-07T14:54:20.421Z,98250.5
2022-09-07T14:59:55.666Z,98270.8
2022-09-07T15:05:30.635Z,98290.9
2022-09-07T15:11:35.745Z,98298
2022-09-07T15:17:44.219Z,98296.3
2022-09-07T15:23:21.759Z,98292.3
2022-09-07T15:29:12.522Z,98293
2022-09-07T15:34:47.929Z,98320.2
2022-09-07T15:40:23.952Z,98325.2
2022-09-07T15:46:00.323Z,98327.2
2022-09-07T15:52:07.464Z,98337.6
2022-09-07T15:58:12.235Z,98351
2022-09-07T16:03:50.106Z,98355.7
2022-09-07T16:09:26.395Z,98377.3
2022-09-07T16:15:02.777Z,98373.3
2022-09-07T16:20:37.684Z,98390.4
2022-09-07T16:26:20.692Z,98371.2
2022-09-07T16:32:48.222Z,98370.6
2022-09-07T16:38:56.420Z,98383.3
2022-09-07T16:44:34.131Z,98389.8
2022-09-07T16:50:08.728Z,98392.6
2022-09-07T16:55:44.462Z,98406.6
2022-09-07T17:01:20.277Z,98410.4
2022-09-07T17:06:57.611Z,98407.4
2022-09-07T17:12:32.508Z,98413.6
2022-09-07T17:18:07.321Z,98414.1
2022-09-07T17:23:56.222Z,98411
2022-09-07T17:29:31.613Z,98419
2022-09-07T17:35:06.998Z,98408.2
2022-09-07T17:40:43.283Z,98413.5
2022-09-07T17:46:19.944Z,98419.4
2022-09-07T17:52:03.970Z,98424.1
2022-09-07T17:57:39.898Z,98429.2
2022-09-07T18:03:15.007Z,98429
2022-09-07T18:08:49.730Z,98421.5
2022-09-07T18:14:25.567Z,98420.9
2022-09-07T18:20:00.460Z,98413.6
2022-09-07T18:25:36.303Z,98412.2
2022-09-07T18:31:11.392Z,98422
2022-09-07T18:36:47.124Z,98419.9
2022-09-07T18:42:22.780Z,98435.6
2022-09-07T18:47:57.750Z,98434.8
2022-09-07T18:53:33.358Z,98431.5
2022-09-07T18:59:09.003Z,98437
2022-09-07T19:05:52.765Z,98445.5
2022-09-07T19:11:28.205Z,98447.7
2022-09-07T19:17:03.197Z,98454.8
2022-09-07T19:22:39.054Z,98457.2
2022-09-07T19:28:14.410Z,98460.2
2022-09-07T19:33:49.483Z,98457.4
2022-09-07T19:39:24.623Z,98462.1
2022-09-07T19:44:59.476Z,98469.6
2022-09-07T19:50:34.663Z,98475.2
2022-09-07T19:56:09.395Z,98476.3
2022-09-07T20:01:45.177Z,98472.3
2022-09-07T20:07:20.112Z,98471.4
2022-09-07T20:12:55.008Z,98472.8
2022-09-07T20:18:30.804Z,98472.1
2022-09-07T20:24:05.961Z,98478
2022-09-07T20:29:42.252Z,98485.8
2022-09-07T20:35:17.195Z,98489.7
2022-09-07T20:40:52.358Z,98483.4
2022-09-07T20:46:28.417Z,98481.7
2022-09-07T20:52:03.902Z,98478.6
2022-09-07T20:57:38.746Z,98476
